sensor_id;sensor_type;location;lat;lon;timestamp;pressure;altitude;pressure_sealevel;temperature;humidity
17505;BME280;8870;50.950;11.762;2023-06-14T00:03:12;98238.69;;;13.52;100.00
17505;BME280;8870;50.950;11.762;2023-06-14T00:08:47;98226.72;;;13.46;100.00
17505;BME280;8870;50.950;11.762;2023-06-14T00:14:06;98214.59;;;13.42;100.00
17505;BME280;8870;50.950;11.762;2023-06-14T00:19:37;98222.91;;;13.40;100.00
17505;BME280;8870;50.950;11.762;2023-06-14T00:24:58;98238.31;;;13.32;100.00
17505;BME280;8870;50.950;11.762;2023-06-14T00:30:44;98238.09;;;13.18;100.00
17505;BME280;8870;50.950;11.762;2023-06-14T00:36:03;98245.63;;;13.08;100.00
17505;BME280;8870;50.950;11.762;2023-06-14T00:41:38;98228.81;;;12.98;100.00
17505;BME280;8870;50.950;11.762;2023-06-14T00:46:57;98235.13;;;12.90;100.00
17505;BME280;8870;50.950;11.762;2023-06-14T00:52:28;98238.06;;;12.80;100.00
17505;BME280;8870;50.950;11.762;2023-06-14T00:58:01;98240.16;;;12.70;100.00
17505;BME280;8870;50.950;11.762;2023-06-14T01:03:20;98238.72;;;12.59;100.00
17505;BME280;8870;50.950;11.762;2023-06-14T01:08:59;98236.94;;;12.51;100.00
17505;BME280;8870;50.950;11.762;2023-06-14T01:14:22;98245.91;;;12.43;100.00
17505;BME280;8870;50.950;11.762;2023-06-14T01:19:56;98244.56;;;12.39;100.00
17505;BME280;8870;50.950;11.762;2023-06-14T01:25:18;98249.69;;;12.34;100.00
17505;BME280;8870;50.950;11.762;2023-06-14T01:30:53;98239.91;;;12.25;100.00
17505;BME280;8870;50.950;11.762;2023-06-14T01:36:12;98249.56;;;12.19;100.00
17505;BME280;8870;50.950;11.762;2023-06-14T01:41:47;98243.19;;;12.12;100.00
17505;BME280;8870;50.950;11.762;2023-06-14T01:47:07;98240.34;;;12.05;100.00
17505;BME280;8870;50.950;11.762;2023-06-14T01:52:39;98240.34;;;12.05;100.00
17505;BME280;8870;50.950;11.762;2023-06-14T01:58:13;98236.81;;;12.05;100.00
17505;BME280;8870;50.950;11.762;2023-06-14T02:03:32;98242.72;;;12.08;100.00
17505;BME280;8870;50.950;11.762;2023-06-14T02:08:57;98245.75;;;12.05;100.00
17505;BME280;8870;50.950;11.762;2023-06-14T02:14:24;98253.19;;;12.03;100.00
17505;BME280;8870;50.950;11.762;2023-06-14T02:19:43;98245.59;;;11.98;100.00
17505;BME280;8870;50.950;11.762;2023-06-14T02:25:01;98256.56;;;11.88;100.00
17505;BME280;8870;50.950;11.762;2023-06-14T02:30:35;98260.81;;;11.83;100.00
17505;BME280;8870;50.950;11.762;2023-06-14T02:35:57;98255.41;;;11.83;100.00
17505;BME280;8870;50.950;11.762;2023-06-14T02:41:28;98251.22;;;11.80;100.00
17505;BME280;8870;50.950;11.762;2023-06-14T02:46:49;98260.69;;;11.68;100.00
17505;BME280;8870;50.950;11.762;2023-06-14T02:52:20;98258.50;;;11.63;100.00
17505;BME280;8870;50.950;11.762;2023-06-14T02:57:51;98262.56;;;11.59;100.00
17505;BME280;8870;50.950;11.762;2023-06-14T03:03:13;98266.97;;;11.52;100.00
17505;BME280;8870;50.950;11.762;2023-06-14T03:08:46;98267.13;;;11.42;100.00
17505;BME280;8870;50.950;11.762;2023-06-14T03:14:05;98279.63;;;11.35;100.00
17505;BME280;8870;50.950;11.762;2023-06-14T03:19:38;98280.81;;;11.32;100.00
17505;BME280;8870;50.950;11.762;2023-06-14T03:24:57;98279.44;;;11.12;100.00
17505;BME280;8870;50.950;11.762;2023-06-14T03:30:32;98291.59;;;10.99;100.00
17505;BME280;8870;50.950;11.762;2023-06-14T03:35:53;98297.78;;;10.83;100.00
17505;BME280;8870;50.950;11.762;2023-06-14T03:41:25;98306.72;;;10.75;100.00
17505;BME280;8870;50.950;11.762;2023-06-14T03:46:43;98305.19;;;10.73;100.00
17505;BME280;8870;50.950;11.762;2023-06-14T03:52:18;98319.66;;;10.72;100.00
17505;BME280;8870;50.950;11.762;2023-06-14T03:57:37;98316.63;;;10.67;100.00
17505;BME280;8870;50.950;11.762;2023-06-14T04:03:09;98322.72;;;10.69;100.00
17505;BME280;8870;50.950;11.762;2023-06-14T04:08:31;98330.78;;;10.69;100.00
17505;BME280;8870;50.950;11.762;2023-06-14T04:14:05;98328.94;;;10.69;100.00
17505;BME280;8870;50.950;11.762;2023-06-14T04:19:23;98329.63;;;10.71;100.00
17505;BME280;8870;50.950;11.762;2023-06-14T04:24:59;98331.81;;;10.76;100.00
17505;BME280;8870;50.950;11.762;2023-06-14T04:30:18;98347.66;;;10.79;100.00
17505;BME280;8870;50.950;11.762;2023-06-14T04:35:55;98348.84;;;10.85;100.00
17505;BME280;8870;50.950;11.762;2023-06-14T04:41:31;98339.94;;;10.92;100.00
17505;BME280;8870;50.950;11.762;2023-06-14T04:46:50;98352.06;;;10.97;100.00
17505;BME280;8870;50.950;11.762;2023-06-14T04:52:23;98356.31;;;11.07;100.00
17505;BME280;8870;50.950;11.762;2023-06-14T04:57:58;98364.06;;;11.19;100.00
17505;BME280;8870;50.950;11.762;2023-06-14T05:03:16;98370.31;;;11.28;100.00
17505;BME280;8870;50.950;11.762;2023-06-14T05:08:48;98370.50;;;11.43;100.00
17505;BME280;8870;50.950;11.762;2023-06-14T05:14:09;98376.25;;;11.56;100.00
17505;BME280;8870;50.950;11.762;2023-06-14T05:19:41;98372.84;;;11.70;100.00
17505;BME280;8870;50.950;11.762;2023-06-14T05:24:59;98372.47;;;11.82;100.00
17505;BME280;8870;50.950;11.762;2023-06-14T05:30:33;98374.50;;;11.96;100.00
17505;BME280;8870;50.950;11.762;2023-06-14T05:35:51;98382.94;;;12.10;100.00
17505;BME280;8870;50.950;11.762;2023-06-14T05:41:24;98383.94;;;12.25;100.00
17505;BME280;8870;50.950;11.762;2023-06-14T05:46:45;98382.16;;;12.41;100.00
17505;BME280;8870;50.950;11.762;2023-06-14T05:52:16;98376.91;;;12.56;100.00
17505;BME280;8870;50.950;11.762;2023-06-14T05:57:48;98382.59;;;12.69;100.00
17505;BME280;8870;50.950;11.762;2023-06-14T06:03:09;98386.41;;;12.83;100.00
17505;BME280;8870;50.950;11.762;2023-06-14T06:08:40;98382.97;;;12.98;100.00
17505;BME280;8870;50.950;11.762;2023-06-14T06:13:58;98383.22;;;13.11;100.00
17505;BME280;8870;50.950;11.762;2023-06-14T06:19:32;98388.50;;;13.28;100.00
17505;BME280;8870;50.950;11.762;2023-06-14T06:24:50;98396.22;;;13.39;100.00
17505;BME280;8870;50.950;11.762;2023-06-14T06:30:21;98403.59;;;13.53;100.00
17505;BME280;8870;50.950;11.762;2023-06-14T06:35:42;98415.66;;;13.66;100.00
17505;BME280;8870;50.950;11.762;2023-06-14T06:41:13;98415.72;;;13.81;100.00
17505;BME280;8870;50.950;11.762;2023-06-14T06:46:31;98420.59;;;14.00;100.00
17505;BME280;8870;50.950;11.762;2023-06-14T06:52:08;98414.69;;;14.20;100.00
17505;BME280;8870;50.950;11.762;2023-06-14T06:57:39;98409.06;;;14.37;100.00
17505;BME280;8870;50.950;11.762;2023-06-14T07:02:57;98421.59;;;14.53;100.00
17505;BME280;8870;50.950;11.762;2023-06-14T07:08:31;98430.31;;;14.63;100.00
17505;BME280;8870;50.950;11.762;2023-06-14T07:13:49;98434.63;;;14.72;100.00
17505;BME280;8870;50.950;11.762;2023-06-14T07:19:20;98430.13;;;14.79;100.00
17505;BME280;8870;50.950;11.762;2023-06-14T07:24:43;98444.16;;;14.98;100.00
17505;BME280;8870;50.950;11.762;2023-06-14T07:30:15;98442.25;;;15.14;100.00
17505;BME280;8870;50.950;11.762;2023-06-14T07:35:34;98446.53;;;15.23;100.00
17505;BME280;8870;50.950;11.762;2023-06-14T07:41:08;98457.16;;;15.39;100.00
17505;BME280;8870;50.950;11.762;2023-06-14T07:46:27;98446.25;;;15.54;100.00
17505;BME280;8870;50.950;11.762;2023-06-14T07:52:00;98445.13;;;15.64;100.00
17505;BME280;8870;50.950;11.762;2023-06-14T07:57:22;98446.31;;;15.83;100.00
17505;BME280;8870;50.950;11.762;2023-06-14T08:02:53;98438.59;;;16.01;100.00
17505;BME280;8870;50.950;11.762;2023-06-14T08:08:13;98423.66;;;16.19;100.00
17505;BME280;8870;50.950;11.762;2023-06-14T08:13:47;98435.66;;;16.31;100.00
17505;BME280;8870;50.950;11.762;2023-06-14T08:19:06;98442.28;;;16.51;100.00
17505;BME280;8870;50.950;11.762;2023-06-14T08:24:38;98438.88;;;16.77;100.00
17505;BME280;8870;50.950;11.762;2023-06-14T08:30:00;98441.72;;;16.97;100.00
17505;BME280;8870;50.950;11.762;2023-06-14T08:35:33;98438.47;;;17.15;100.00
17505;BME280;8870;50.950;11.762;2023-06-14T08:40:56;98435.59;;;17.37;100.00
17505;BME280;8870;50.950;11.762;2023-06-14T08:46:32;98439.84;;;17.66;100.00
17505;BME280;8870;50.950;11.762;2023-06-14T08:51:57;98438.81;;;17.74;100.00
17505;BME280;8870;50.950;11.762;2023-06-14T08:57:28;98436.94;;;17.95;100.00
17505;BME280;8870;50.950;11.762;2023-06-14T09:02:52;98463.44;;;18.14;100.00
17505;BME280;8870;50.950;11.762;2023-06-14T09:08:26;98439.72;;;18.28;100.00
17505;BME280;8870;50.950;11.762;2023-06-14T09:13:46;98445.56;;;18.39;100.00
17505;BME280;8870;50.950;11.762;2023-06-14T09:19:24;98452.88;;;18.58;100.00
17505;BME280;8870;50.950;11.762;2023-06-14T09:24:42;98455.19;;;18.68;100.00
17505;BME280;8870;50.950;11.762;2023-06-14T09:30:13;98459.19;;;18.72;99.94
17505;BME280;8870;50.950;11.762;2023-06-14T09:35:37;98457.66;;;18.90;100.00
17505;BME280;8870;50.950;11.762;2023-06-14T09:41:08;98444.97;;;19.22;94.69
17505;BME280;8870;50.950;11.762;2023-06-14T09:46:27;98453.03;;;19.49;90.78
17505;BME280;8870;50.950;11.762;2023-06-14T09:52:02;98451.97;;;19.89;82.50
17505;BME280;8870;50.950;11.762;2023-06-14T09:57:22;98450.78;;;20.10;83.74
17505;BME280;8870;50.950;11.762;2023-06-14T10:03:00;98458.28;;;19.83;82.13
17505;BME280;8870;50.950;11.762;2023-06-14T10:08:25;98451.69;;;19.97;79.23
17505;BME280;8870;50.950;11.762;2023-06-14T10:13:59;98459.03;;;20.04;77.29
17505;BME280;8870;50.950;11.762;2023-06-14T10:19:20;98455.81;;;19.75;77.34
17505;BME280;8870;50.950;11.762;2023-06-14T10:24:59;98457.88;;;19.86;76.57
17505;BME280;8870;50.950;11.762;2023-06-14T10:30:25;98448.53;;;20.00;73.54
17505;BME280;8870;50.950;11.762;2023-06-14T10:36:10;98436.56;;;20.20;68.58
17505;BME280;8870;50.950;11.762;2023-06-14T10:41:35;98443.94;;;20.45;71.63
17505;BME280;8870;50.950;11.762;2023-06-14T10:47:07;98439.47;;;20.51;64.83
17505;BME280;8870;50.950;11.762;2023-06-14T10:52:28;98425.25;;;20.60;65.66
17505;BME280;8870;50.950;11.762;2023-06-14T10:58:04;98429.38;;;20.51;62.19
17505;BME280;8870;50.950;11.762;2023-06-14T11:03:43;98432.41;;;20.61;59.53
17505;BME280;8870;50.950;11.762;2023-06-14T11:09:45;98428.03;;;20.79;58.38
17505;BME280;8870;50.950;11.762;2023-06-14T11:15:12;98433.31;;;20.81;60.66
17505;BME280;8870;50.950;11.762;2023-06-14T11:20:46;98428.19;;;21.03;57.08
17505;BME280;8870;50.950;11.762;2023-06-14T11:26:05;98436.09;;;21.11;59.29
17505;BME280;8870;50.950;11.762;2023-06-14T11:31:43;98429.16;;;21.08;57.18
17505;BME280;8870;50.950;11.762;2023-06-14T11:37:01;98425.03;;;21.36;56.30
17505;BME280;8870;50.950;11.762;2023-06-14T11:42:32;98422.16;;;21.62;55.35
17505;BME280;8870;50.950;11.762;2023-06-14T11:47:54;98422.00;;;21.57;57.01
17505;BME280;8870;50.950;11.762;2023-06-14T11:53:25;98422.38;;;21.30;54.98
17505;BME280;8870;50.950;11.762;2023-06-14T11:58:44;98412.03;;;21.13;56.31
17505;BME280;8870;50.950;11.762;2023-06-14T12:04:23;98412.75;;;20.90;54.85
17505;BME280;8870;50.950;11.762;2023-06-14T12:09:41;98409.97;;;21.27;57.24
17505;BME280;8870;50.950;11.762;2023-06-14T12:15:13;98406.09;;;21.16;54.96
17505;BME280;8870;50.950;11.762;2023-06-14T12:20:34;98404.81;;;21.49;54.86
17505;BME280;8870;50.950;11.762;2023-06-14T12:26:07;98395.97;;;21.66;53.64
17505;BME280;8870;50.950;11.762;2023-06-14T12:31:25;98392.56;;;22.06;51.80
17505;BME280;8870;50.950;11.762;2023-06-14T12:37:01;98399.53;;;22.44;50.80
17505;BME280;8870;50.950;11.762;2023-06-14T12:42:19;98398.78;;;22.85;50.42
17505;BME280;8870;50.950;11.762;2023-06-14T12:47:51;98397.78;;;22.91;49.65
17505;BME280;8870;50.950;11.762;2023-06-14T12:53:19;98408.34;;;22.70;51.08
17505;BME280;8870;50.950;11.762;2023-06-14T12:58:51;98405.91;;;22.98;50.76
17505;BME280;8870;50.950;11.762;2023-06-14T13:04:09;98398.50;;;22.98;52.24
17505;BME280;8870;50.950;11.762;2023-06-14T13:09:44;98394.50;;;23.18;48.51
17505;BME280;8870;50.950;11.762;2023-06-14T13:15:01;98388.09;;;23.00;49.78
17505;BME280;8870;50.950;11.762;2023-06-14T13:20:32;98389.13;;;23.23;49.00
17505;BME280;8870;50.950;11.762;2023-06-14T13:25:53;98390.00;;;23.41;47.55
17505;BME280;8870;50.950;11.762;2023-06-14T13:31:24;98393.88;;;23.57;47.17
17505;BME280;8870;50.950;11.762;2023-06-14T13:36:42;98385.81;;;23.84;46.30
17505;BME280;8870;50.950;11.762;2023-06-14T13:42:16;98382.94;;;24.25;45.50
17505;BME280;8870;50.950;11.762;2023-06-14T13:47:35;98380.50;;;24.85;44.30
17505;BME280;8870;50.950;11.762;2023-06-14T13:53:20;98384.09;;;24.85;44.59
17505;BME280;8870;50.950;11.762;2023-06-14T13:59:08;98386.31;;;24.88;45.06
17505;BME280;8870;50.950;11.762;2023-06-14T14:04:41;98389.09;;;24.49;45.03
17505;BME280;8870;50.950;11.762;2023-06-14T14:10:29;98394.22;;;25.02;45.24
17505;BME280;8870;50.950;11.762;2023-06-14T14:16:11;98389.31;;;25.53;43.44
17505;BME280;8870;50.950;11.762;2023-06-14T14:21:56;98391.59;;;25.62;43.57
17505;BME280;8870;50.950;11.762;2023-06-14T14:27:30;98399.50;;;25.80;43.53
17505;BME280;8870;50.950;11.762;2023-06-14T14:33:18;98394.06;;;25.91;41.66
17505;BME280;8870;50.950;11.762;2023-06-14T14:38:51;98397.88;;;25.35;42.58
17505;BME280;8870;50.950;11.762;2023-06-14T14:44:21;98392.44;;;24.51;43.46
17505;BME280;8870;50.950;11.762;2023-06-14T14:49:42;98386.28;;;24.66;43.31
17505;BME280;8870;50.950;11.762;2023-06-14T14:55:14;98388.19;;;25.27;43.92
17505;BME280;8870;50.950;11.762;2023-06-14T15:00:31;98390.16;;;25.87;42.08
17505;BME280;8870;50.950;11.762;2023-06-14T15:06:05;98398.47;;;25.37;42.61
17505;BME280;8870;50.950;11.762;2023-06-14T15:11:24;98398.56;;;24.58;45.29
17505;BME280;8870;50.950;11.762;2023-06-14T15:16:54;98398.31;;;24.04;45.21
17505;BME280;8870;50.950;11.762;2023-06-14T15:22:18;98396.16;;;23.77;48.58
17505;BME280;8870;50.950;11.762;2023-06-14T15:27:49;98398.19;;;23.52;49.67
17505;BME280;8870;50.950;11.762;2023-06-14T15:33:07;98398.44;;;23.80;50.42
17505;BME280;8870;50.950;11.762;2023-06-14T15:38:41;98403.97;;;24.14;51.79
17505;BME280;8870;50.950;11.762;2023-06-14T15:44:00;98404.78;;;24.14;50.86
17505;BME280;8870;50.950;11.762;2023-06-14T15:49:31;98407.75;;;23.79;51.73
17505;BME280;8870;50.950;11.762;2023-06-14T15:54:59;98407.84;;;23.38;53.23
17505;BME280;8870;50.950;11.762;2023-06-14T16:00:31;98408.56;;;22.81;54.14
17505;BME280;8870;50.950;11.762;2023-06-14T16:05:50;98406.31;;;22.54;54.81
17505;BME280;8870;50.950;11.762;2023-06-14T16:11:23;98402.72;;;22.29;57.19
17505;BME280;8870;50.950;11.762;2023-06-14T16:16:42;98406.31;;;22.18;57.68
17505;BME280;8870;50.950;11.762;2023-06-14T16:22:12;98411.75;;;22.06;59.41
17505;BME280;8870;50.950;11.762;2023-06-14T16:27:33;98410.44;;;21.97;58.91
17505;BME280;8870;50.950;11.762;2023-06-14T16:33:05;98413.78;;;21.87;59.30
17505;BME280;8870;50.950;11.762;2023-06-14T16:38:30;98411.97;;;21.81;59.77
17505;BME280;8870;50.950;11.762;2023-06-14T16:43:56;98416.44;;;22.17;58.61
17505;BME280;8870;50.950;11.762;2023-06-14T16:49:26;98416.22;;;22.78;57.12
17505;BME280;8870;50.950;11.762;2023-06-14T16:54:50;98418.13;;;23.31;55.64
17505;BME280;8870;50.950;11.762;2023-06-14T17:00:25;98418.38;;;23.58;55.47
17505;BME280;8870;50.950;11.762;2023-06-14T17:05:54;98418.06;;;23.72;54.83
17505;BME280;8870;50.950;11.762;2023-06-14T17:11:25;98411.28;;;23.91;55.07
17505;BME280;8870;50.950;11.762;2023-06-14T17:16:45;98424.66;;;23.88;55.51
17505;BME280;8870;50.950;11.762;2023-06-14T17:22:16;98424.31;;;24.13;55.68
17505;BME280;8870;50.950;11.762;2023-06-14T17:27:35;98433.78;;;23.88;54.60
17505;BME280;8870;50.950;11.762;2023-06-14T17:33:10;98432.81;;;23.65;54.60
17505;BME280;8870;50.950;11.762;2023-06-14T17:38:29;98435.34;;;23.84;55.20
17505;BME280;8870;50.950;11.762;2023-06-14T17:44:01;98430.16;;;23.99;55.15
17505;BME280;8870;50.950;11.762;2023-06-14T17:49:21;98438.44;;;23.88;56.07
17505;BME280;8870;50.950;11.762;2023-06-14T17:54:54;98440.47;;;23.92;55.89
17505;BME280;8870;50.950;11.762;2023-06-14T18:00:13;98437.00;;;23.85;55.61
17505;BME280;8870;50.950;11.762;2023-06-14T18:05:47;98442.94;;;23.77;55.64
17505;BME280;8870;50.950;11.762;2023-06-14T18:11:06;98445.34;;;23.44;56.41
17505;BME280;8870;50.950;11.762;2023-06-14T18:16:37;98450.53;;;23.29;57.40
17505;BME280;8870;50.950;11.762;2023-06-14T18:21:58;98453.88;;;23.19;58.02
17505;BME280;8870;50.950;11.762;2023-06-14T18:27:30;98454.41;;;22.92;59.37
17505;BME280;8870;50.950;11.762;2023-06-14T18:32:48;98457.41;;;22.78;60.10
17505;BME280;8870;50.950;11.762;2023-06-14T18:38:25;98471.88;;;22.62;61.33
17505;BME280;8870;50.950;11.762;2023-06-14T18:43:44;98463.81;;;22.37;63.11
17505;BME280;8870;50.950;11.762;2023-06-14T18:49:16;98463.44;;;22.09;64.68
17505;BME280;8870;50.950;11.762;2023-06-14T18:54:49;98470.25;;;21.76;66.84
17505;BME280;8870;50.950;11.762;2023-06-14T19:00:12;98471.03;;;21.46;68.97
17505;BME280;8870;50.950;11.762;2023-06-14T19:05:44;98466.38;;;21.16;74.77
17505;BME280;8870;50.950;11.762;2023-06-14T19:11:04;98466.75;;;20.83;78.40
17505;BME280;8870;50.950;11.762;2023-06-14T19:16:37;98470.81;;;20.55;82.80
17505;BME280;8870;50.950;11.762;2023-06-14T19:21:55;98464.78;;;20.21;87.99
17505;BME280;8870;50.950;11.762;2023-06-14T19:27:29;98473.41;;;19.92;93.06
17505;BME280;8870;50.950;11.762;2023-06-14T19:32:50;98475.25;;;19.60;97.04
17505;BME280;8870;50.950;11.762;2023-06-14T19:38:21;98472.88;;;19.31;100.00
17505;BME280;8870;50.950;11.762;2023-06-14T19:43:41;98478.84;;;19.01;100.00
17505;BME280;8870;50.950;11.762;2023-06-14T19:49:13;98484.78;;;18.78;100.00
17505;BME280;8870;50.950;11.762;2023-06-14T19:54:31;98485.84;;;18.57;100.00
17505;BME280;8870;50.950;11.762;2023-06-14T20:00:06;98485.66;;;18.38;100.00
17505;BME280;8870;50.950;11.762;2023-06-14T20:05:24;98492.38;;;18.15;100.00
17505;BME280;8870;50.950;11.762;2023-06-14T20:10:56;98496.13;;;18.01;100.00
17505;BME280;8870;50.950;11.762;2023-06-14T20:16:17;98503.63;;;17.85;100.00
17505;BME280;8870;50.950;11.762;2023-06-14T20:21:48;98502.53;;;17.73;100.00
17505;BME280;8870;50.950;11.762;2023-06-14T20:27:07;98499.78;;;17.60;100.00
17505;BME280;8870;50.950;11.762;2023-06-14T20:32:41;98501.38;;;17.40;100.00
17505;BME280;8870;50.950;11.762;2023-06-14T20:38:00;98500.09;;;17.30;100.00
17505;BME280;8870;50.950;11.762;2023-06-14T20:43:31;98499.63;;;17.19;100.00
17505;BME280;8870;50.950;11.762;2023-06-14T20:48:52;98499.56;;;17.06;100.00
17505;BME280;8870;50.950;11.762;2023-06-14T20:54:24;98498.25;;;16.95;100.00
17505;BME280;8870;50.950;11.762;2023-06-14T20:59:56;98506.34;;;16.88;100.00
17505;BME280;8870;50.950;11.762;2023-06-14T21:05:17;98509.03;;;16.82;100.00
17505;BME280;8870;50.950;11.762;2023-06-14T21:10:49;98508.13;;;16.74;100.00
17505;BME280;8870;50.950;11.762;2023-06-14T21:16:09;98513.53;;;16.68;100.00
17505;BME280;8870;50.950;11.762;2023-06-14T21:21:42;98507.22;;;16.60;100.00
17505;BME280;8870;50.950;11.762;2023-06-14T21:27:01;98523.63;;;16.45;100.00
17505;BME280;8870;50.950;11.762;2023-06-14T21:32:33;98515.75;;;16.29;100.00
17505;BME280;8870;50.950;11.762;2023-06-14T21:37:54;98515.19;;;16.12;100.00
17505;BME280;8870;50.950;11.762;2023-06-14T21:43:26;98516.94;;;15.98;100.00
17505;BME280;8870;50.950;11.762;2023-06-14T21:48:44;98515.25;;;15.82;100.00
17505;BME280;8870;50.950;11.762;2023-06-14T21:54:17;98521.19;;;15.70;100.00
17505;BME280;8870;50.950;11.762;2023-06-14T21:59:49;98519.63;;;15.61;100.00
17505;BME280;8870;50.950;11.762;2023-06-14T22:05:07;98515.38;;;15.52;100.00
17505;BME280;8870;50.950;11.762;2023-06-14T22:10:43;98518.56;;;15.40;100.00
17505;BME280;8870;50.950;11.762;2023-06-14T22:16:01;98519.72;;;15.31;100.00
17505;BME280;8870;50.950;11.762;2023-06-14T22:21:32;98518.41;;;15.27;100.00
17505;BME280;8870;50.950;11.762;2023-06-14T22:26:54;98517.09;;;15.23;100.00
17505;BME280;8870;50.950;11.762;2023-06-14T22:32:27;98517.84;;;15.17;100.00
17505;BME280;8870;50.950;11.762;2023-06-14T22:37:47;98516.94;;;15.09;100.00
17505;BME280;8870;50.950;11.762;2023-06-14T22:43:20;98519.72;;;15.01;100.00
17505;BME280;8870;50.950;11.762;2023-06-14T22:48:39;98522.53;;;14.93;100.00
17505;BME280;8870;50.950;11.762;2023-06-14T22:54:12;98523.31;;;14.87;100.00
17505;BME280;8870;50.950;11.762;2023-06-14T22:59:45;98516.75;;;14.81;100.00
17505;BME280;8870;50.950;11.762;2023-06-14T23:05:04;98526.47;;;14.75;100.00
17505;BME280;8870;50.950;11.762;2023-06-14T23:10:39;98520.09;;;14.68;100.00
17505;BME280;8870;50.950;11.762;2023-06-14T23:15:59;98520.81;;;14.62;100.00
17505;BME280;8870;50.950;11.762;2023-06-14T23:21:35;98516.78;;;14.58;100.00
17505;BME280;8870;50.950;11.762;2023-06-14T23:26:55;98515.28;;;14.55;100.00
17505;BME280;8870;50.950;11.762;2023-06-14T23:32:29;98519.38;;;14.51;100.00
17505;BME280;8870;50.950;11.762;2023-06-14T23:37:48;98518.06;;;14.47;100.00
17505;BME280;8870;50.950;11.762;2023-06-14T23:43:20;98519.63;;;14.41;100.00
17505;BME280;8870;50.950;11.762;2023-06-14T23:48:41;98522.78;;;14.30;100.00
17505;BME280;8870;50.950;11.762;2023-06-14T23:54:13;98517.66;;;14.20;100.00
17505;BME280;8870;50.950;11.762;2023-06-14T23:59:45;98517.22;;;14.08;100.00
